Time;durP1;ratioP1;P1;durP2;ratioP2;P2;SDS_P1;SDS_P2;PMS_P1;PMS_P2;Temp;Humidity;BMP_temperature;BMP_pressure;BME280_temperature;BME280_humidity;BME280_pressure;Samples;Min_cycle;Max_cycle;Signal;HPM_P1;HPM_P2
2022/05/12 00:01:19;;;;;;;16.92;9.02;;;;;;;14.33;71.57;93044.69;5019530;28;20529;-79
2022/05/12 00:03:45;;;;;;;24.42;9.63;;;;;;;14.30;71.60;93045.28;5002216;28;20037;-80
2022/05/12 00:06:11;;;;;;;17.02;9.00;;;;;;;14.29;71.85;93046.34;5019813;28;20037;-80
2022/05/12 00:08:37;;;;;;;19.67;9.52;;;;;;;14.24;71.74;93032.53;5020014;28;20097;-81
2022/05/12 00:11:03;;;;;;;15.43;8.38;;;;;;;14.25;72.01;93032.25;5013800;28;20045;-81
2022/05/12 00:13:29;;;;;;;19.85;9.10;;;;;;;14.23;72.07;93034.38;5012859;28;20052;-80
2022/05/12 00:15:55;;;;;;;13.43;8.88;;;;;;;14.21;72.30;93020.75;5019942;28;20128;-79
2022/05/12 00:18:21;;;;;;;15.55;8.40;;;;;;;14.16;72.33;93024.25;4970625;28;20026;-79
2022/05/12 00:20:47;;;;;;;17.38;9.38;;;;;;;14.13;72.58;93027.47;5000753;28;20080;-81
2022/05/12 00:23:20;;;;;;;13.95;8.40;;;;;;;14.19;72.38;93030.00;5006617;28;20520;-78
2022/05/12 00:25:48;;;;;;;20.30;9.05;;;;;;;14.13;72.19;93018.78;5020200;28;20041;-79
2022/05/12 00:28:21;;;;;;;18.58;9.10;;;;;;;14.13;72.60;93029.31;5017388;28;20026;-79
2022/05/12 00:30:48;;;;;;;14.90;8.38;;;;;;;14.12;72.37;93022.50;4996061;28;20208;-80
2022/05/12 00:33:15;;;;;;;22.25;8.95;;;;;;;14.10;72.55;93019.38;5008282;28;20091;-81
2022/05/12 00:35:43;;;;;;;20.23;8.85;;;;;;;14.11;72.56;93015.66;5019079;28;20034;-81
2022/05/12 00:38:10;;;;;;;26.30;8.88;;;;;;;14.10;72.72;93017.53;5016529;28;20044;-80
2022/05/12 00:40:38;;;;;;;18.63;8.77;;;;;;;14.09;72.46;93015.94;5001600;28;20041;-79
2022/05/12 00:43:07;;;;;;;16.58;9.02;;;;;;;14.08;73.03;93019.66;4997229;28;20029;-82
2022/05/12 00:45:35;;;;;;;19.13;8.13;;;;;;;14.07;72.68;93014.69;5014857;28;20480;-81
2022/05/12 00:48:03;;;;;;;16.20;8.60;;;;;;;14.08;72.88;93024.16;5000253;28;20065;-80
2022/05/12 00:50:34;;;;;;;17.15;8.93;;;;;;;14.05;72.99;93022.09;5001424;28;20038;-80
2022/05/12 00:53:04;;;;;;;18.92;8.73;;;;;;;14.02;73.13;93018.22;5000791;28;20041;-79
2022/05/12 00:55:42;;;;;;;16.38;8.57;;;;;;;14.00;73.10;93014.31;5017814;28;20034;-81
2022/05/12 00:58:12;;;;;;;21.67;8.77;;;;;;;13.99;73.24;93012.78;5019158;28;20841;-78
2022/05/12 01:00:39;;;;;;;18.75;9.40;;;;;;;13.97;73.60;93017.53;5017461;28;20100;-79
2022/05/12 01:03:10;;;;;;;19.60;8.93;;;;;;;13.89;73.57;93009.25;5000996;28;20037;-79
2022/05/12 01:05:36;;;;;;;17.13;8.88;;;;;;;13.91;73.84;93007.09;5001362;28;20045;-80
2022/05/12 01:08:02;;;;;;;18.27;9.52;;;;;;;13.95;73.63;93012.56;5018869;28;20032;-79
2022/05/12 01:10:29;;;;;;;15.27;9.30;;;;;;;13.95;73.61;93007.31;4999734;28;20086;-81
2022/05/12 01:12:56;;;;;;;20.13;9.93;;;;;;;13.93;73.50;93007.59;5000303;28;20033;-80
2022/05/12 01:15:24;;;;;;;19.23;9.85;;;;;;;13.92;73.63;93006.03;4985748;28;20554;-80
2022/05/12 01:18:00;;;;;;;19.52;9.43;;;;;;;13.86;73.79;92993.28;5016859;28;20109;-81
2022/05/12 01:20:25;;;;;;;19.58;9.95;;;;;;;13.83;73.99;92992.00;5008098;28;20030;-82
2022/05/12 01:22:57;;;;;;;16.88;9.48;;;;;;;13.84;73.99;93001.44;4984549;28;20057;-82
2022/05/12 01:25:28;;;;;;;19.03;10.07;;;;;;;13.83;73.74;92999.13;5017216;28;20034;-81
2022/05/12 01:27:54;;;;;;;16.02;9.15;;;;;;;13.85;73.62;92997.00;4988601;28;20046;-81
2022/05/12 01:30:22;;;;;;;20.17;9.52;;;;;;;13.85;73.16;92997.00;4982012;28;20511;-81
2022/05/12 01:32:48;;;;;;;20.27;9.77;;;;;;;13.80;73.30;92989.94;5019349;28;20021;-81
2022/05/12 01:35:17;;;;;;;21.65;10.15;;;;;;;13.82;73.89;92995.69;4996640;28;20092;-79
2022/05/12 01:37:45;;;;;;;21.60;10.57;;;;;;;13.83;73.86;92999.91;5016296;28;20396;-78
2022/05/12 01:40:14;;;;;;;20.00;10.02;;;;;;;13.75;74.16;92987.44;5016441;28;20730;-78
2022/05/12 01:42:39;;;;;;;22.05;9.82;;;;;;;13.81;74.88;92999.41;5018186;28;20046;-79
2022/05/12 01:45:07;;;;;;;21.90;9.70;;;;;;;13.79;74.75;92993.66;5017234;28;20088;-81
2022/05/12 01:47:34;;;;;;;20.80;10.05;;;;;;;13.77;74.55;93001.06;5010800;28;20483;-82
2022/05/12 01:50:00;;;;;;;22.83;10.30;;;;;;;13.74;74.82;93001.66;5017704;28;20034;-80
2022/05/12 01:52:26;;;;;;;20.88;9.63;;;;;;;13.65;74.96;92996.31;4999334;28;20064;-81
2022/05/12 01:54:52;;;;;;;15.63;9.63;;;;;;;13.62;74.57;92993.47;5017001;28;20311;-81
2022/05/12 01:57:19;;;;;;;16.73;9.85;;;;;;;13.65;74.96;93003.41;5016829;28;20390;-80
2022/05/12 01:59:44;;;;;;;18.52;10.10;;;;;;;13.64;74.86;93001.84;4999569;28;20038;-79
2022/05/12 02:02:10;;;;;;;16.77;9.90;;;;;;;13.59;75.13;92989.56;4999271;28;20050;-81
2022/05/12 02:04:36;;;;;;;16.88;10.20;;;;;;;13.61;75.35;92997.19;4999779;28;20030;-80
2022/05/12 02:07:02;;;;;;;20.95;10.05;;;;;;;13.56;75.40;92995.41;5016475;28;20551;-81
2022/05/12 02:09:28;;;;;;;22.83;10.13;;;;;;;13.55;75.33;92999.09;4999616;28;20435;-81
2022/05/12 02:11:53;;;;;;;19.08;9.48;;;;;;;13.54;75.55;92998.34;5016461;28;20228;-81
2022/05/12 02:14:19;;;;;;;24.98;10.07;;;;;;;13.52;75.38;92995.22;5012540;28;20030;-80
2022/05/12 02:16:44;;;;;;;17.92;10.10;;;;;;;13.52;75.78;92997.06;5011599;28;20045;-81
2022/05/12 02:19:11;;;;;;;17.67;10.18;;;;;;;13.47;76.10;92995.31;5016840;28;20026;-80
2022/05/12 02:21:37;;;;;;;19.42;10.52;;;;;;;13.46;76.77;92992.97;4997864;28;20049;-81
2022/05/12 02:24:04;;;;;;;22.20;10.18;;;;;;;13.42;76.67;92995.41;4999846;28;20056;-79
2022/05/12 02:26:30;;;;;;;22.27;10.15;;;;;;;13.40;76.83;93000.19;5013545;28;20067;-79
2022/05/12 02:28:56;;;;;;;22.60;11.55;;;;;;;13.40;77.12;92989.66;5011426;28;20042;-80
2022/05/12 02:31:21;;;;;;;19.13;9.93;;;;;;;13.39;77.56;92997.84;5017761;28;20368;-80
2022/05/12 02:33:47;;;;;;;27.20;11.27;;;;;;;13.35;77.27;92979.22;5000528;28;20022;-80
2022/05/12 02:36:13;;;;;;;21.42;10.50;;;;;;;13.36;77.37;92986.06;5017923;28;20038;-81
2022/05/12 02:38:39;;;;;;;22.27;11.07;;;;;;;13.38;77.41;92994.44;4999977;28;20558;-81
2022/05/12 02:41:06;;;;;;;20.13;11.18;;;;;;;13.39;77.26;92984.69;4997351;28;20034;-80
2022/05/12 02:43:31;;;;;;;20.70;10.93;;;;;;;13.41;76.78;92980.69;5016939;28;20041;-81
2022/05/12 02:46:03;;;;;;;17.95;9.68;;;;;;;13.42;76.55;92994.63;5000064;28;20038;-81
2022/05/12 02:48:31;;;;;;;;;;;;;;;13.41;76.37;92988.56;4999450;28;20045;-81
2022/05/12 02:50:57;;;;;;;19.25;10.10;;;;;;;13.38;76.48;92989.16;5015418;28;20013;-80
2022/05/12 02:53:24;;;;;;;19.55;10.13;;;;;;;13.39;76.42;92993.34;5016544;28;20092;-80
2022/05/12 02:55:50;;;;;;;18.17;10.73;;;;;;;13.37;76.68;92982.34;4994674;28;20030;-80
2022/05/12 02:58:15;;;;;;;22.23;11.38;;;;;;;13.36;76.96;92988.69;5011520;28;20096;-81
2022/05/12 03:00:41;;;;;;;21.08;10.70;;;;;;;13.33;77.49;92989.28;4997210;28;20038;-79
2022/05/12 03:03:07;;;;;;;22.05;10.90;;;;;;;13.31;77.53;92999.28;5020859;28;20038;-78
2022/05/12 03:05:34;;;;;;;20.00;11.07;;;;;;;13.28;77.56;92997.22;5019519;28;20049;-79
2022/05/12 03:08:00;;;;;;;25.13;11.95;;;;;;;13.24;77.41;92985.69;5004127;28;20096;-79
2022/05/12 03:10:26;;;;;;;26.73;12.32;;;;;;;13.27;77.82;92991.16;5021173;28;20455;-79
2022/05/12 03:12:52;;;;;;;24.80;11.50;;;;;;;13.25;77.85;92989.91;4995341;28;20095;-79
2022/05/12 03:15:18;;;;;;;19.70;11.25;;;;;;;13.27;77.73;92999.06;5004318;28;20035;-80
2022/05/12 03:17:45;;;;;;;19.00;11.35;;;;;;;13.29;77.54;92996.19;5020616;28;20034;-80
2022/05/12 03:20:14;;;;;;;17.67;11.07;;;;;;;13.33;77.31;92992.69;5011266;28;20026;-80
2022/05/12 03:22:40;;;;;;;23.38;11.77;;;;;;;13.36;77.21;92996.56;5010437;28;20038;-81
2022/05/12 03:25:09;;;;;;;18.40;10.52;;;;;;;13.38;76.37;92999.69;5001836;28;20057;-79
2022/05/12 03:27:35;;;;;;;17.85;10.30;;;;;;;13.30;76.77;92987.97;4997753;28;20061;-79
2022/05/12 03:30:01;;;;;;;22.60;10.70;;;;;;;13.34;77.44;92998.72;5000314;28;20018;-81
2022/05/12 03:32:27;;;;;;;24.10;11.20;;;;;;;13.37;77.16;92997.34;4988637;28;20045;-81
2022/05/12 03:34:52;;;;;;;22.45;11.32;;;;;;;13.33;77.57;92999.78;5001482;28;20037;-79
2022/05/12 03:37:18;;;;;;;23.05;11.45;;;;;;;13.35;77.46;92997.63;4982121;28;20099;-81
2022/05/12 03:39:44;;;;;;;19.95;11.23;;;;;;;13.33;77.56;92997.16;4999036;28;20058;-79
2022/05/12 03:42:12;;;;;;;21.83;11.95;;;;;;;13.32;77.41;93004.25;5002265;28;20034;-80
2022/05/12 03:44:49;;;;;;;21.60;11.80;;;;;;;13.33;77.77;93005.06;5019101;28;20028;-81
2022/05/12 03:47:24;;;;;;;24.17;11.13;;;;;;;13.30;77.30;93002.97;5003462;28;20073;-79
2022/05/12 03:49:53;;;;;;;22.17;10.98;;;;;;;13.27;77.35;92998.28;5018483;28;20487;-79
2022/05/12 03:52:20;;;;;;;22.73;10.45;;;;;;;13.25;77.33;93008.31;5016207;28;20041;-81
2022/05/12 03:54:46;;;;;;;26.27;10.90;;;;;;;13.21;77.50;93004.69;5001252;28;20136;-80
2022/05/12 03:57:13;;;;;;;20.35;11.32;;;;;;;13.19;77.39;93006.81;5015046;28;20080;-79
2022/05/12 03:59:40;;;;;;;22.15;9.95;;;;;;;13.19;77.46;93001.56;5000748;28;20033;-79
2022/05/12 04:02:08;;;;;;;27.52;11.38;;;;;;;13.15;77.36;93008.47;5018222;28;20395;-81
2022/05/12 04:04:34;;;;;;;23.80;10.75;;;;;;;13.11;77.37;92995.91;4999554;28;20053;-81
2022/05/12 04:07:00;;;;;;;21.27;10.70;;;;;;;13.10;77.22;92999.63;4999383;28;20060;-81
2022/05/12 04:09:26;;;;;;;22.55;11.68;;;;;;;13.14;77.03;93005.06;5014061;28;20113;-80
2022/05/12 04:11:52;;;;;;;22.42;11.50;;;;;;;13.04;77.12;92987.63;5014528;28;20118;-81
2022/05/12 04:14:18;;;;;;;20.83;11.25;;;;;;;13.15;77.53;93004.00;4995060;28;20065;-80
2022/05/12 04:16:44;;;;;;;24.65;11.27;;;;;;;13.15;77.52;93001.38;5003734;28;20034;-80
2022/05/12 04:19:12;;;;;;;21.85;10.77;;;;;;;13.12;77.62;93001.94;5008543;28;20042;-80
2022/05/12 04:21:37;;;;;;;21.02;11.98;;;;;;;13.20;77.97;93003.13;4992426;28;20049;-79
2022/05/12 04:24:05;;;;;;;26.65;12.32;;;;;;;13.15;78.22;92998.75;4951890;28;1151412;-79
2022/05/12 04:26:32;;;;;;;25.30;11.50;;;;;;;13.19;78.03;93001.56;4997215;28;20065;-79
2022/05/12 04:28:58;;;;;;;29.23;15.23;;;;;;;13.17;78.07;92998.44;4996237;28;20025;-81
2022/05/12 04:31:24;;;;;;;53.88;24.15;;;;;;;13.23;78.31;92997.28;4993627;28;20030;-80
2022/05/12 04:36:34;;;;;;;36.35;16.50;;;;;;;13.29;78.89;93001.44;5013648;28;20046;-81
2022/05/12 04:39:00;;;;;;;34.95;15.70;;;;;;;13.36;78.57;93007.09;5008699;28;20488;-81
2022/05/12 04:41:26;;;;;;;24.55;13.35;;;;;;;13.39;78.24;92995.97;4982058;28;20033;-80
2022/05/12 04:43:52;;;;;;;32.38;12.65;;;;;;;13.44;78.16;93006.44;4996148;28;20064;-80
2022/05/12 04:46:18;;;;;;;22.33;11.45;;;;;;;13.53;78.06;93009.94;5014341;28;20057;-82
2022/05/12 04:48:44;;;;;;;23.50;11.50;;;;;;;13.53;78.11;92996.78;5008463;28;20053;-82
2022/05/12 04:51:09;;;;;;;19.08;11.82;;;;;;;13.61;77.81;93011.09;4996584;28;20030;-79
2022/05/12 04:53:35;;;;;;;20.65;11.73;;;;;;;13.63;77.40;93005.56;5018310;28;20029;-81
2022/05/12 04:56:01;;;;;;;33.80;11.38;;;;;;;13.77;76.96;93016.84;5016637;28;20113;-78
2022/05/12 04:58:27;;;;;;;25.23;11.65;;;;;;;13.86;76.43;93016.97;5012837;28;20026;-81
2022/05/12 05:00:52;;;;;;;25.33;12.27;;;;;;;13.99;75.77;93018.03;4991873;28;20032;-80
2022/05/12 05:03:18;;;;;;;19.30;11.15;;;;;;;14.06;75.00;93015.78;5009050;28;20691;-81
2022/05/12 05:05:45;;;;;;;24.38;11.10;;;;;;;14.23;74.42;93020.41;4992862;28;20042;-81
2022/05/12 05:08:16;;;;;;;27.05;11.55;;;;;;;14.35;74.44;93015.44;4992615;28;20451;-80
2022/05/12 05:10:42;;;;;;;23.50;11.57;;;;;;;14.46;74.28;93027.31;4992635;28;20034;-83
2022/05/12 05:13:08;;;;;;;29.10;12.82;;;;;;;14.51;73.79;93021.16;4996706;28;20042;-82
2022/05/12 05:15:35;;;;;;;25.20;11.85;;;;;;;14.59;73.95;93025.75;5009133;28;20097;-81
2022/05/12 05:18:01;;;;;;;24.63;11.68;;;;;;;14.68;74.38;93017.91;4980508;28;20120;-81
2022/05/12 05:20:29;;;;;;;20.17;11.27;;;;;;;14.79;74.11;93032.41;5013095;28;20034;-80
2022/05/12 05:22:55;;;;;;;27.17;12.75;;;;;;;14.87;73.58;93038.84;5009196;28;20574;-80
2022/05/12 05:25:21;;;;;;;23.95;12.65;;;;;;;14.96;73.19;93045.72;4994453;28;20030;-79
2022/05/12 05:27:49;;;;;;;29.23;12.52;;;;;;;15.06;73.05;93049.97;4993761;28;20046;-79
2022/05/12 05:30:18;;;;;;;24.38;12.52;;;;;;;15.11;72.92;93047.25;5014404;28;20030;-82
2022/05/12 05:32:45;;;;;;;26.70;12.15;;;;;;;15.22;72.36;93062.81;5014887;28;20030;-83
2022/05/12 05:35:14;;;;;;;27.10;12.27;;;;;;;15.30;72.06;93056.81;5008442;28;20072;-80
2022/05/12 05:37:41;;;;;;;24.48;11.95;;;;;;;15.40;71.36;93053.91;5005942;28;20038;-81
2022/05/12 05:40:09;;;;;;;23.58;11.90;;;;;;;15.52;71.21;93053.38;5013418;28;20473;-82
2022/05/12 05:42:35;;;;;;;26.05;12.63;;;;;;;15.62;70.33;93051.25;5019665;28;20026;-82
2022/05/12 05:45:08;;;;;;;22.58;12.45;;;;;;;15.76;70.71;93055.69;5002190;28;20042;-82
2022/05/12 05:47:34;;;;;;;25.35;12.23;;;;;;;15.90;70.80;93048.47;5012777;28;20064;-82
2022/05/12 05:50:00;;;;;;;28.33;12.60;;;;;;;16.03;70.65;93044.94;5001005;28;20038;-82
2022/05/12 05:55:10;;;;;;;27.83;13.00;;;;;;;16.52;69.22;93054.69;4997225;28;20808;-82
2022/05/12 05:57:36;;;;;;;22.88;12.60;;;;;;;17.24;67.66;93054.09;5017430;28;20088;-82
2022/05/12 06:00:05;;;;;;;24.70;12.00;;;;;;;18.23;64.33;93060.38;4999366;28;20026;-83
2022/05/12 06:02:32;;;;;;;24.45;12.93;;;;;;;19.05;60.18;93058.16;4987585;28;20038;-82
2022/05/12 06:04:58;;;;;;;27.38;13.02;;;;;;;19.87;56.62;93054.13;4976953;28;20500;-83
2022/05/12 06:07:24;;;;;;;27.13;13.15;;;;;;;20.55;55.36;93061.56;5011929;28;20037;-84
2022/05/12 06:09:50;;;;;;;32.53;14.18;;;;;;;21.17;54.02;93065.69;5018116;28;20092;-84
2022/05/12 06:12:17;;;;;;;28.17;14.18;;;;;;;21.79;51.43;93066.22;5005183;28;20480;-84
2022/05/12 06:14:42;;;;;;;28.58;14.68;;;;;;;22.30;49.93;93070.16;5014673;28;20034;-84
2022/05/12 06:17:08;;;;;;;38.50;15.35;;;;;;;22.84;48.33;93066.81;4996128;28;20700;-82
2022/05/12 06:19:35;;;;;;;39.15;15.27;;;;;;;23.30;47.61;93063.56;5017294;28;20386;-84
2022/05/12 06:22:01;;;;;;;37.75;16.63;;;;;;;23.56;46.78;93060.25;4997868;28;20089;-82
2022/05/12 06:24:26;;;;;;;32.40;15.45;;;;;;;24.19;47.32;93067.13;4996430;28;20054;-83
2022/05/12 06:26:52;;;;;;;33.53;16.55;;;;;;;24.18;46.88;93069.00;5014745;28;20141;-80
2022/05/12 06:29:19;;;;;;;32.30;14.68;;;;;;;24.04;46.26;93063.41;5014600;28;20040;-82
2022/05/12 06:31:45;;;;;;;30.88;14.80;;;;;;;24.40;45.72;93062.09;5015002;28;20495;-82
2022/05/12 06:34:10;;;;;;;22.83;12.95;;;;;;;24.49;45.42;93059.19;4998395;28;20034;-82
2022/05/12 06:36:36;;;;;;;34.22;13.70;;;;;;;24.83;45.44;93062.75;5012969;28;20042;-81
2022/05/12 06:39:02;;;;;;;34.33;13.43;;;;;;;24.46;46.80;93063.34;5011753;28;20518;-77
2022/05/12 06:41:30;;;;;;;28.92;13.10;;;;;;;23.93;47.66;93065.13;5011093;28;20045;-79
2022/05/12 06:43:56;;;;;;;29.55;13.82;;;;;;;22.79;49.98;93059.84;4986831;28;20142;-79
2022/05/12 06:46:21;;;;;;;29.33;13.93;;;;;;;22.29;51.43;93066.72;5005495;28;20547;-78
2022/05/12 06:48:50;;;;;;;29.65;13.60;;;;;;;21.89;53.90;93072.19;4983003;28;20404;-76
2022/05/12 06:51:17;;;;;;;30.00;13.68;;;;;;;21.46;54.75;93073.69;5008983;28;20046;-77
2022/05/12 06:53:43;;;;;;;29.73;14.18;;;;;;;20.84;55.87;93068.53;5009790;28;20084;-78
2022/05/12 06:56:09;;;;;;;28.38;13.70;;;;;;;20.72;57.56;93071.25;4993520;28;20041;-78
2022/05/12 06:58:35;;;;;;;31.33;15.18;;;;;;;20.70;56.94;93070.78;5005238;28;20041;-78
2022/05/12 07:01:02;;;;;;;30.98;14.02;;;;;;;20.93;57.18;93066.53;5008835;28;20412;-78
2022/05/12 07:03:29;;;;;;;30.40;13.98;;;;;;;20.92;56.36;93065.00;5009657;28;20049;-78
2022/05/12 07:05:55;;;;;;;27.70;14.38;;;;;;;20.97;57.08;93071.97;4990794;28;20475;-78
2022/05/12 07:08:21;;;;;;;35.33;15.73;;;;;;;20.64;57.22;93070.22;5011383;28;20057;-77
2022/05/12 07:10:47;;;;;;;42.72;17.15;;;;;;;20.53;57.16;93075.19;4992793;28;20172;-78
2022/05/12 07:13:19;;;;;;;39.33;15.27;;;;;;;20.25;58.32;93079.66;5008936;28;20548;-78
2022/05/12 07:15:47;;;;;;;41.00;13.90;;;;;;;20.43;56.78;93075.66;5009971;28;20057;-77
2022/05/12 07:18:14;;;;;;;27.98;15.40;;;;;;;20.24;57.47;93076.22;5010609;28;20052;-78
2022/05/12 07:28:52;;;;;;;37.95;16.25;;;;;;;20.41;56.41;93069.13;5006512;28;20125;-78
2022/05/12 07:31:19;;;;;;;37.15;15.27;;;;;;;20.51;56.68;93066.00;5009680;28;20034;-78
2022/05/12 07:33:46;;;;;;;39.53;17.33;;;;;;;20.27;57.48;93072.13;4993747;28;20384;-77
2022/05/12 07:36:15;;;;;;;41.28;16.85;;;;;;;20.06;58.00;93075.66;5008147;28;20033;-78
2022/05/12 07:38:42;;;;;;;38.95;17.98;;;;;;;19.88;59.17;93077.72;5011327;28;20121;-77
2022/05/12 07:41:12;;;;;;;40.38;18.30;;;;;;;20.02;58.81;93066.78;4993202;28;20029;-79
2022/05/12 07:43:42;;;;;;;45.35;17.63;;;;;;;20.11;58.00;93064.78;4986822;28;20142;-78
2022/05/12 07:46:10;;;;;;;40.83;18.40;;;;;;;20.13;58.42;93073.22;5013797;28;20077;-78
2022/05/12 07:48:37;;;;;;;35.50;16.63;;;;;;;20.27;57.47;93062.25;5012213;28;20034;-78
2022/05/12 07:51:02;;;;;;;63.35;17.38;;;;;;;20.36;56.85;93070.13;4993240;28;20049;-77
2022/05/12 07:53:28;;;;;;;40.28;17.73;;;;;;;20.42;57.70;93071.44;4992262;28;20038;-78
2022/05/12 07:55:54;;;;;;;37.50;16.85;;;;;;;20.57;56.48;93070.03;4994815;28;20034;-77
2022/05/12 07:58:19;;;;;;;35.88;18.25;;;;;;;20.50;56.53;93070.56;5006835;28;20529;-77
2022/05/12 08:00:45;;;;;;;34.15;15.40;;;;;;;20.30;57.51;93068.78;5010182;28;20034;-78
2022/05/12 08:03:12;;;;;;;34.55;15.40;;;;;;;20.52;55.46;93075.53;4995660;28;20030;-78
2022/05/12 08:05:38;;;;;;;44.72;17.88;;;;;;;20.43;56.26;93078.31;4997883;28;20037;-78
2022/05/12 08:08:05;;;;;;;38.42;16.15;;;;;;;20.53;55.76;93069.88;5014045;28;20538;-77
2022/05/12 08:10:31;;;;;;;35.72;15.55;;;;;;;20.59;55.20;93073.91;4965457;28;20030;-79
2022/05/12 08:12:57;;;;;;;32.03;15.05;;;;;;;20.70;55.35;93073.47;5007102;28;20041;-80
2022/05/12 08:15:25;;;;;;;38.95;16.63;;;;;;;20.33;56.96;93076.09;5012340;28;20022;-79
2022/05/12 08:17:55;;;;;;;44.85;17.42;;;;;;;20.42;55.26;93079.41;5016216;28;20128;-80
2022/05/12 08:20:21;;;;;;;43.60;16.45;;;;;;;20.69;56.50;93072.69;5016910;28;20054;-78
2022/05/12 08:22:47;;;;;;;31.38;14.60;;;;;;;20.83;53.97;93082.97;4993653;28;20500;-78
2022/05/12 08:25:13;;;;;;;31.38;15.68;;;;;;;20.92;55.57;93074.88;5004957;28;20060;-78
2022/05/12 08:27:39;;;;;;;35.53;15.65;;;;;;;20.96;55.62;93081.03;4981419;28;20030;-78
2022/05/12 08:30:08;;;;;;;38.65;15.90;;;;;;;21.34;53.74;93069.94;5011674;28;20073;-78
2022/05/12 08:32:34;;;;;;;37.50;15.25;;;;;;;21.45;52.64;93067.59;5016740;28;20081;-80
2022/05/12 08:34:59;;;;;;;30.25;15.35;;;;;;;21.19;51.30;93068.03;4999199;28;20491;-79
2022/05/12 08:37:25;;;;;;;38.28;16.48;;;;;;;21.31;53.70;93075.97;5013768;28;20120;-78
2022/05/12 08:39:51;;;;;;;40.15;15.57;;;;;;;20.99;54.38;93075.84;4996097;28;20117;-79
2022/05/12 08:42:33;;;;;;;34.25;16.48;;;;;;;21.18;54.42;93069.88;5002579;28;20042;-78
2022/05/12 08:45:01;;;;;;;31.00;13.50;;;;;;;21.18;55.02;93075.22;5014226;28;20405;-79
2022/05/12 08:47:32;;;;;;;34.45;16.10;;;;;;;21.02;55.19;93078.94;5013000;28;20029;-78
2022/05/12 08:49:58;;;;;;;30.20;15.65;;;;;;;20.90;54.54;93077.84;5013528;28;20488;-79
2022/05/12 08:52:54;;;;;;;34.72;16.02;;;;;;;20.74;53.99;93079.66;5013594;28;20037;-77
2022/05/12 08:55:25;;;;;;;29.70;14.75;;;;;;;20.92;53.22;93080.97;4991676;28;20045;-77
2022/05/12 08:58:02;;;;;;;30.27;14.77;;;;;;;20.79;52.17;93079.41;5013177;28;20026;-78
2022/05/12 09:00:34;;;;;;;33.50;13.27;;;;;;;20.81;52.57;93073.78;4995248;28;20046;-80
2022/05/12 09:03:25;;;;;;;29.10;13.55;;;;;;;21.11;51.52;93074.25;4990404;28;20053;-78
2022/05/12 09:06:03;;;;;;;31.02;13.18;;;;;;;21.39;50.84;93077.72;4997088;28;20044;-78
2022/05/12 09:08:34;;;;;;;27.48;12.70;;;;;;;21.34;51.18;93077.16;5013606;28;20037;-79
2022/05/12 09:11:38;;;;;;;27.38;14.02;;;;;;;21.20;51.54;93078.31;5009878;28;20030;-77
2022/05/12 09:14:09;;;;;;;26.55;13.00;;;;;;;21.41;53.35;93083.50;4919724;28;20057;-77
2022/05/12 09:16:35;;;;;;;32.42;14.80;;;;;;;21.48;52.09;93074.13;5000428;28;20025;-77
2022/05/12 09:19:01;;;;;;;29.42;13.88;;;;;;;21.35;52.89;93082.16;4994134;28;20553;-77
2022/05/12 09:21:29;;;;;;;29.38;14.32;;;;;;;21.45;52.80;93085.47;5010655;28;20038;-77
2022/05/12 09:23:59;;;;;;;24.48;13.02;;;;;;;21.53;52.90;93095.22;5007329;28;20590;-76
2022/05/12 09:26:37;;;;;;;32.88;14.88;;;;;;;21.46;53.86;93093.13;5006018;28;20100;-77
2022/05/12 09:29:30;;;;;;;24.20;14.15;;;;;;;21.42;53.52;93093.03;5012125;28;20099;-76
2022/05/12 09:32:02;;;;;;;40.65;15.60;;;;;;;21.21;53.71;93092.44;5005345;28;20437;-76
2022/05/12 09:34:32;;;;;;;37.17;15.90;;;;;;;21.25;54.40;93087.94;4994210;28;20112;-77
2022/05/12 09:37:18;;;;;;;24.85;13.52;;;;;;;21.13;53.70;93095.97;4993614;28;20044;-77
2022/05/12 09:39:50;;;;;;;32.08;15.60;;;;;;;21.31;53.56;93091.16;4992701;28;20042;-77
2022/05/12 09:42:28;;;;;;;24.10;13.45;;;;;;;21.33;54.34;93097.69;5003151;28;20105;-77
2022/05/12 09:45:06;;;;;;;26.00;14.85;;;;;;;21.56;54.56;93092.63;4975175;28;20097;-77
2022/05/12 09:47:33;;;;;;;27.77;15.55;;;;;;;21.32;53.24;93090.84;4987030;28;20029;-77
2022/05/12 09:50:17;;;;;;;53.58;15.60;;;;;;;21.38;54.05;93097.44;5010423;28;20025;-77
2022/05/12 09:52:46;;;;;;;33.33;15.02;;;;;;;21.50;51.98;93087.91;5010396;28;20053;-77
2022/05/12 09:55:27;;;;;;;29.90;15.02;;;;;;;21.55;52.26;93093.00;4993463;28;21017;-77
2022/05/12 09:58:00;;;;;;;32.47;14.47;;;;;;;21.86;52.82;93096.81;5012893;28;20042;-78
2022/05/12 10:00:28;;;;;;;33.75;15.00;;;;;;;21.88;51.47;93091.94;5010067;28;20327;-77
2022/05/12 10:09:22;;;;;;;22.13;11.65;;;;;;;21.96;52.08;93089.13;5004542;28;20037;-76
2022/05/12 10:12:02;;;;;;;35.30;15.50;;;;;;;21.85;51.25;93089.97;4976231;28;20080;-77
2022/05/12 10:14:36;;;;;;;29.13;14.35;;;;;;;21.83;50.67;93093.72;5006800;28;20088;-77
2022/05/12 10:17:09;;;;;;;20.17;8.88;;;;;;;21.99;51.63;93087.66;5008124;28;20034;-76
2022/05/12 10:19:36;;;;;;;25.77;13.10;;;;;;;22.09;52.23;93092.47;4988212;28;20037;-76
2022/05/12 10:22:07;;;;;;;36.60;12.18;;;;;;;22.38;51.35;93087.84;5010831;28;20033;-76
2022/05/12 10:24:40;;;;;;;25.75;12.30;;;;;;;22.47;50.33;93085.00;4989420;28;20092;-77
2022/05/12 10:27:18;;;;;;;29.15;12.60;;;;;;;22.70;49.72;93087.81;4989901;28;20034;-77
2022/05/12 10:29:58;;;;;;;29.13;13.77;;;;;;;22.62;49.96;93087.66;4985451;28;20118;-76
2022/05/12 10:33:01;;;;;;;30.60;13.98;;;;;;;22.67;49.59;93086.63;4982777;28;20049;-77
2022/05/12 10:35:38;;;;;;;;;;;;;;;22.66;49.54;93077.84;4972186;28;20054;-76
2022/05/12 10:38:33;;;;;;;35.45;13.80;;;;;;;22.67;50.35;93078.63;5004533;28;19967;-76
2022/05/12 10:41:08;;;;;;;32.55;15.15;;;;;;;22.77;50.73;93082.66;4989058;28;20496;-77
2022/05/12 10:43:55;;;;;;;25.33;12.73;;;;;;;22.74;50.20;93075.34;4990783;28;20042;-76
2022/05/12 10:46:42;;;;;;;24.88;13.68;;;;;;;22.49;48.91;93072.88;4983084;28;20038;-76
2022/05/12 10:49:21;;;;;;;32.80;14.20;;;;;;;22.53;49.99;93068.41;4989184;28;20038;-76
2022/05/12 10:51:58;;;;;;;25.35;13.77;;;;;;;22.66;49.27;93061.84;4988801;28;20030;-77
2022/05/12 10:54:42;;;;;;;28.67;14.23;;;;;;;22.81;49.38;93049.59;4989473;28;20040;-76
2022/05/12 10:57:31;;;;;;;26.55;13.57;;;;;;;22.81;48.77;93046.91;4990292;28;20030;-76
2022/05/12 10:59:59;;;;;;;32.85;14.88;;;;;;;22.84;49.24;93053.44;4984917;28;20500;-76
2022/05/12 11:02:52;;;;;;;31.08;14.10;;;;;;;22.84;49.42;93042.78;4986746;28;20062;-76
2022/05/12 11:05:51;;;;;;;33.47;14.70;;;;;;;23.06;50.47;93044.78;4984640;28;20092;-76
2022/05/12 11:08:41;;;;;;;31.25;16.20;;;;;;;22.90;50.49;93037.94;4985822;28;20030;-78
2022/05/12 11:11:15;;;;;;;24.75;12.65;;;;;;;22.92;50.16;93036.47;4982183;28;20040;-79
2022/05/12 11:13:54;;;;;;;24.33;12.20;;;;;;;22.95;49.18;93041.09;4991104;28;20061;-79
2022/05/12 11:16:26;;;;;;;37.38;16.42;;;;;;;23.09;48.85;93042.56;4991163;28;20455;-79
2022/05/12 11:19:21;;;;;;;34.13;16.10;;;;;;;23.26;50.60;93044.81;4991918;28;20827;-78
2022/05/12 11:21:58;;;;;;;34.83;15.27;;;;;;;23.05;50.60;93037.91;4994476;28;20042;-78
2022/05/12 11:24:37;;;;;;;39.97;14.95;;;;;;;23.06;49.08;93033.34;5011529;28;20038;-78
2022/05/12 11:27:14;;;;;;;34.55;16.25;;;;;;;23.20;51.06;93035.53;5014236;28;20041;-78
2022/05/12 11:30:17;;;;;;;25.35;14.75;;;;;;;23.14;50.38;93031.59;5014404;28;20513;-78
2022/05/12 11:33:09;;;;;;;31.98;16.17;;;;;;;23.09;51.32;93037.22;5010297;28;20064;-78
2022/05/12 11:35:43;;;;;;;43.30;19.07;;;;;;;22.99;50.63;93033.16;4970785;28;20044;-78
2022/05/12 11:38:30;;;;;;;48.60;17.85;;;;;;;23.18;50.57;93043.88;5014803;28;20040;-78
2022/05/12 11:40:57;;;;;;;35.83;16.33;;;;;;;22.99;50.17;93039.31;5014271;28;20041;-77
2022/05/12 11:46:23;;;;;;;45.05;18.08;;;;;;;22.94;49.78;93039.53;5014601;28;20034;-79
2022/05/12 11:49:00;;;;;;;39.25;19.00;;;;;;;23.11;49.50;93042.97;4996715;28;20046;-79
2022/05/12 11:51:48;;;;;;;39.97;16.83;;;;;;;23.12;49.10;93044.50;4996154;28;20033;-78
2022/05/12 11:54:27;;;;;;;33.33;15.13;;;;;;;23.05;49.42;93045.91;5009029;28;20046;-78